Time;durP1;ratioP1;P1;durP2;ratioP2;P2;SDS_P1;SDS_P2;PMS_P1;PMS_P2;Temp;Humidity;BMP_temperature;BMP_pressure;BME280_temperature;BME280_humidity;BME280_pressure;Samples;Min_cycle;Max_cycle;Signal;HPM_P1;HPM_P2
2021/03/08 00:00:31;;;;;;;61.67;30.80;;;3.10;99.90;;;;;;5045883;28;20037;-81
2021/03/08 00:02:59;;;;;;;64.50;32.70;;;3.00;99.90;;;;;;5039220;28;20025;-80
2021/03/08 00:05:25;;;;;;;63.57;32.73;;;2.90;99.90;;;;;;5050171;28;20037;-80
2021/03/08 00:07:51;;;;;;;64.18;32.60;;;3.00;99.90;;;;;;5052024;28;20044;-80
2021/03/08 00:10:19;;;;;;;68.37;32.87;;;3.00;99.90;;;;;;5039946;28;20107;-81
2021/03/08 00:12:46;;;;;;;67.90;33.03;;;3.00;99.90;;;;;;5061133;28;20063;-82
2021/03/08 00:15:13;;;;;;;61.73;32.17;;;3.00;99.90;;;;;;5048097;28;20051;-81
2021/03/08 00:17:39;;;;;;;66.37;32.53;;;3.00;99.90;;;;;;5051265;28;20027;-82
2021/03/08 00:20:07;;;;;;;66.10;32.67;;;3.00;99.90;;;;;;5047861;28;20731;-81
2021/03/08 00:22:33;;;;;;;64.80;32.17;;;3.00;99.90;;;;;;5048895;28;20032;-81
2021/03/08 00:24:58;;;;;;;71.13;34.93;;;3.00;99.90;;;;;;5052043;28;20033;-81
2021/03/08 00:27:24;;;;;;;68.77;32.93;;;3.00;99.90;;;;;;5047315;28;20101;-81
2021/03/08 00:29:49;;;;;;;60.67;32.33;;;3.00;99.90;;;;;;5053200;28;20545;-81
2021/03/08 00:32:15;;;;;;;70.33;33.00;;;3.00;99.90;;;;;;5039272;28;20471;-80
2021/03/08 00:34:41;;;;;;;67.73;34.47;;;2.90;99.90;;;;;;5052882;28;20056;-79
2021/03/08 00:37:06;;;;;;;63.33;31.37;;;2.80;99.90;;;;;;5052115;28;20603;-82
2021/03/08 00:39:32;;;;;;;64.77;32.10;;;2.80;99.90;;;;;;5037673;28;20022;-81
2021/03/08 00:41:58;;;;;;;63.20;32.03;;;2.70;99.90;;;;;;5046250;28;20028;-80
2021/03/08 00:44:25;;;;;;;67.73;33.33;;;2.70;99.90;;;;;;5050612;28;20388;-81
2021/03/08 00:46:51;;;;;;;71.60;34.07;;;2.60;99.90;;;;;;5036482;28;20037;-81
2021/03/08 00:49:16;;;;;;;63.93;30.60;;;2.50;99.90;;;;;;5045275;28;20033;-82
2021/03/08 00:51:42;;;;;;;64.63;33.63;;;2.60;99.90;;;;;;5035964;28;20029;-81
2021/03/08 00:54:07;;;;;;;58.67;29.33;;;2.60;99.90;;;;;;5041939;28;20449;-81
2021/03/08 00:56:33;;;;;;;65.67;33.37;;;2.60;99.90;;;;;;5052116;28;20043;-80
2021/03/08 00:58:59;;;;;;;65.03;33.97;;;2.60;99.90;;;;;;5036694;28;20020;-81
2021/03/08 01:01:25;;;;;;;62.47;32.63;;;2.60;99.90;;;;;;5047526;28;20124;-81
2021/03/08 01:03:51;;;;;;;61.77;31.67;;;2.50;99.90;;;;;;5037201;28;20045;-81
2021/03/08 01:06:16;;;;;;;65.13;31.87;;;2.50;99.90;;;;;;5049113;28;20116;-82
2021/03/08 01:08:42;;;;;;;65.70;31.93;;;2.50;99.90;;;;;;5051404;28;20033;-82
2021/03/08 01:11:08;;;;;;;62.93;31.27;;;2.50;99.90;;;;;;5049971;28;20033;-81
2021/03/08 01:13:34;;;;;;;62.90;31.30;;;2.40;99.90;;;;;;5048980;28;20052;-83
2021/03/08 01:16:00;;;;;;;65.17;30.93;;;2.40;99.90;;;;;;5032109;28;20041;-81
2021/03/08 01:18:25;;;;;;;62.60;32.17;;;2.30;99.90;;;;;;5031890;28;20100;-81
2021/03/08 01:20:51;;;;;;;61.47;30.13;;;2.30;99.90;;;;;;5033568;28;20022;-81
2021/03/08 01:23:17;;;;;;;62.97;31.17;;;2.30;99.90;;;;;;5039223;28;20049;-82
2021/03/08 01:25:43;;;;;;;62.33;30.57;;;2.20;99.90;;;;;;5051771;28;20107;-81
2021/03/08 01:28:08;;;;;;;61.83;30.50;;;2.20;99.90;;;;;;5049134;28;20036;-81
2021/03/08 01:30:44;;;;;;;60.07;28.73;;;2.20;99.90;;;;;;5042030;28;20032;-81
2021/03/08 01:33:10;;;;;;;62.17;29.27;;;2.30;99.90;;;;;;5051486;28;20025;-81
2021/03/08 01:35:37;;;;;;;60.53;30.27;;;2.30;99.90;;;;;;5041478;28;20107;-80
2021/03/08 01:38:04;;;;;;;66.50;31.87;;;2.30;99.90;;;;;;5049686;28;20036;-81
2021/03/08 01:40:33;;;;;;;63.23;30.97;;;2.30;99.90;;;;;;5045394;28;20091;-80
2021/03/08 01:42:59;;;;;;;;;;;2.30;99.90;;;;;;5046298;28;20029;-81
2021/03/08 01:45:25;;;;;;;60.13;29.10;;;2.30;99.90;;;;;;5038993;28;20252;-80
2021/03/08 01:47:52;;;;;;;58.90;28.27;;;2.30;99.90;;;;;;5040657;28;20087;-80
2021/03/08 01:50:27;;;;;;;59.97;28.97;;;2.20;99.90;;;;;;5036197;28;20045;-81
2021/03/08 01:52:54;;;;;;;59.33;28.43;;;2.20;99.90;;;;;;5042594;28;20101;-81
2021/03/08 01:55:20;;;;;;;58.33;29.00;;;2.20;99.90;;;;;;5051221;28;20365;-80
2021/03/08 01:57:46;;;;;;;58.17;28.93;;;2.20;99.90;;;;;;5049644;28;20079;-80
2021/03/08 02:00:13;;;;;;;58.30;27.80;;;2.20;99.90;;;;;;5049237;28;20412;-80
2021/03/08 02:02:42;;;;;;;50.80;26.07;;;2.20;99.90;;;;;;5040272;28;20033;-82
2021/03/08 02:05:12;;;;;;;53.55;28.23;;;2.10;99.90;;;;;;5042301;28;20035;-79
2021/03/08 02:07:38;;;;;;;51.83;27.00;;;2.10;99.90;;;;;;5033655;28;20033;-82
2021/03/08 02:10:08;;;;;;;53.70;27.30;;;2.10;99.90;;;;;;5038052;28;20052;-80
2021/03/08 02:12:46;;;;;;;56.23;28.97;;;2.10;99.90;;;;;;5051244;28;20409;-82
2021/03/08 02:15:20;;;;;;;57.07;28.77;;;2.20;99.90;;;;;;5050055;28;20103;-81
2021/03/08 02:17:59;;;;;;;52.20;26.40;;;2.20;99.90;;;;;;5050182;28;20028;-83
2021/03/08 02:20:37;;;;;;;53.40;27.30;;;2.20;99.90;;;;;;5045495;28;20039;-81
2021/03/08 02:23:21;;;;;;;49.13;26.33;;;2.20;99.90;;;;;;5047714;28;20083;-82
2021/03/08 02:26:24;;;;;;;56.30;26.97;;;2.20;99.90;;;;;;5043122;28;20025;-82
2021/03/08 02:29:28;;;;;;;52.97;28.10;;;2.20;99.90;;;;;;5040137;28;20481;-80
2021/03/08 02:31:57;;;;;;;49.70;26.20;;;2.30;99.90;;;;;;5024440;28;20048;-82
2021/03/08 02:34:34;;;;;;;48.88;25.42;;;2.30;99.90;;;;;;5009073;28;20125;-81
2021/03/08 02:37:03;;;;;;;50.07;25.23;;;2.30;99.90;;;;;;5017809;28;20034;-81
2021/03/08 02:39:32;;;;;;;49.08;25.35;;;2.30;99.90;;;;;;5019247;28;20103;-81
2021/03/08 02:42:02;;;;;;;45.67;24.38;;;2.20;99.90;;;;;;5012320;28;20048;-81
2021/03/08 02:44:35;;;;;;;50.53;26.55;;;2.20;99.90;;;;;;5013868;28;20037;-79
2021/03/08 02:47:01;;;;;;;50.20;26.17;;;2.20;99.90;;;;;;5017244;28;20106;-81
2021/03/08 02:49:31;;;;;;;47.83;25.87;;;2.10;99.90;;;;;;5021890;28;20073;-81
2021/03/08 02:52:03;;;;;;;49.83;26.47;;;2.10;99.90;;;;;;5007617;28;20018;-80
2021/03/08 02:54:31;;;;;;;49.23;25.10;;;2.00;99.90;;;;;;5016015;28;20436;-82
2021/03/08 02:57:09;;;;;;;48.33;26.97;;;1.90;99.90;;;;;;5024082;28;20038;-81
2021/03/08 02:59:42;;;;;;;51.10;26.97;;;1.80;99.90;;;;;;5021072;28;20083;-82
2021/03/08 03:02:09;;;;;;;49.77;26.67;;;1.80;99.90;;;;;;5018056;28;20147;-82
2021/03/08 03:04:37;;;;;;;49.23;26.10;;;1.70;99.90;;;;;;5033178;28;20047;-81
2021/03/08 03:07:04;;;;;;;52.90;26.90;;;1.60;99.90;;;;;;5016987;28;20547;-82
2021/03/08 03:09:31;;;;;;;51.37;26.60;;;1.50;99.90;;;;;;5036003;28;20095;-82
2021/03/08 03:11:57;;;;;;;55.63;28.33;;;1.40;99.90;;;;;;5035149;28;20026;-81
2021/03/08 03:14:24;;;;;;;52.53;27.23;;;1.40;99.90;;;;;;5048261;28;20088;-81
2021/03/08 03:16:54;;;;;;;59.23;29.33;;;1.30;99.90;;;;;;5049718;28;20036;-82
2021/03/08 03:19:22;;;;;;;57.00;28.27;;;1.30;99.90;;;;;;5052012;28;20471;-81
2021/03/08 03:21:49;;;;;;;57.57;28.13;;;1.20;99.90;;;;;;5053067;28;20117;-81
2021/03/08 03:24:14;;;;;;;57.47;28.77;;;1.20;99.90;;;;;;5041282;28;20109;-81
2021/03/08 03:26:42;;;;;;;59.50;27.73;;;1.20;99.90;;;;;;5035097;28;20127;-80
2021/03/08 03:29:09;;;;;;;57.30;27.37;;;1.10;99.90;;;;;;5052734;28;20553;-81
2021/03/08 03:31:38;;;;;;;56.87;28.30;;;1.10;99.90;;;;;;5040634;28;20180;-82
2021/03/08 03:34:05;;;;;;;59.05;29.38;;;0.90;99.90;;;;;;5035938;28;20022;-81
2021/03/08 03:36:36;;;;;;;51.43;27.90;;;0.90;99.90;;;;;;5046858;28;20052;-81
2021/03/08 03:39:05;;;;;;;57.37;27.20;;;0.80;99.90;;;;;;5039180;28;20079;-80
2021/03/08 03:41:32;;;;;;;60.22;29.35;;;0.80;99.90;;;;;;5034879;28;20022;-81
2021/03/08 03:43:57;;;;;;;59.90;29.63;;;0.90;99.90;;;;;;5051753;28;20068;-82
2021/03/08 03:46:23;;;;;;;58.00;28.90;;;0.90;99.90;;;;;;5034384;28;20131;-80
2021/03/08 03:48:49;;;;;;;61.07;28.77;;;0.90;99.90;;;;;;5038040;28;20041;-82
2021/03/08 03:51:15;;;;;;;59.77;28.37;;;0.90;99.90;;;;;;5049792;28;20102;-80
2021/03/08 03:53:42;;;;;;;59.30;28.33;;;0.80;99.90;;;;;;5052197;28;20500;-82
2021/03/08 03:56:13;;;;;;;55.57;28.13;;;0.80;99.90;;;;;;5038372;28;20103;-81
2021/03/08 03:58:47;;;;;;;60.77;30.27;;;0.80;99.90;;;;;;5039332;28;20055;-81
2021/03/08 04:01:21;;;;;;;61.67;29.37;;;0.70;99.90;;;;;;5053465;28;20502;-81
2021/03/08 04:03:53;;;;;;;62.03;29.80;;;0.70;99.90;;;;;;5041089;28;20108;-79
2021/03/08 04:06:21;;;;;;;64.53;29.40;;;0.70;99.90;;;;;;5051192;28;20029;-81
2021/03/08 04:08:50;;;;;;;60.87;28.97;;;0.70;99.90;;;;;;5046438;28;20101;-81
2021/03/08 04:11:18;;;;;;;59.80;28.60;;;0.70;99.90;;;;;;5045127;28;20177;-81
2021/03/08 04:13:46;;;;;;;59.87;29.00;;;0.70;99.90;;;;;;5045109;28;20052;-82
2021/03/08 04:16:15;;;;;;;59.27;29.90;;;0.70;99.90;;;;;;5042838;28;20122;-81
2021/03/08 04:18:43;;;;;;;55.47;26.65;;;0.70;99.90;;;;;;5041143;28;20014;-82
2021/03/08 04:21:10;;;;;;;55.23;27.70;;;0.60;99.90;;;;;;5050963;28;20029;-80
2021/03/08 04:23:38;;;;;;;55.70;28.90;;;0.50;99.90;;;;;;5051389;28;20136;-81
2021/03/08 04:26:06;;;;;;;58.30;28.07;;;0.50;99.90;;;;;;5049501;28;20028;-82
2021/03/08 04:28:33;;;;;;;54.87;28.17;;;0.50;99.90;;;;;;5041048;28;20428;-81
2021/03/08 04:30:59;;;;;;;51.97;26.47;;;0.40;99.90;;;;;;5052038;28;20518;-81
2021/03/08 04:33:25;;;;;;;54.00;25.63;;;0.40;99.90;;;;;;5051584;28;20047;-82
2021/03/08 04:35:52;;;;;;;52.53;27.13;;;0.30;99.90;;;;;;5044845;28;20136;-81
2021/03/08 04:38:19;;;;;;;56.03;26.53;;;0.30;99.90;;;;;;5051302;28;20036;-82
2021/03/08 04:40:49;;;;;;;55.47;26.97;;;0.30;99.90;;;;;;5047291;28;20382;-81
2021/03/08 04:43:16;;;;;;;52.27;25.33;;;0.20;99.90;;;;;;5048637;28;20440;-81
2021/03/08 04:45:41;;;;;;;55.57;26.87;;;0.20;99.90;;;;;;5050210;28;20021;-80
2021/03/08 04:48:08;;;;;;;52.60;26.47;;;0.10;99.90;;;;;;5045869;28;20095;-81
2021/03/08 04:50:35;;;;;;;53.50;27.13;;;0.10;99.90;;;;;;5039183;28;20492;-81
2021/03/08 04:53:01;;;;;;;51.73;25.73;;;0.10;99.90;;;;;;5039349;28;20029;-81
2021/03/08 04:55:29;;;;;;;54.30;27.37;;;0.10;99.90;;;;;;5047511;28;20044;-81
2021/03/08 04:57:54;;;;;;;56.07;27.87;;;0.00;99.90;;;;;;5053116;28;20530;-81
2021/03/08 05:00:22;;;;;;;56.20;27.63;;;0.00;99.90;;;;;;5043404;28;20111;-80
2021/03/08 05:02:52;;;;;;;51.57;26.50;;;0.00;99.90;;;;;;5043870;28;20514;-82
2021/03/08 05:05:21;;;;;;;54.83;27.40;;;0.00;99.90;;;;;;5049489;28;20035;-82
2021/03/08 05:07:48;;;;;;;48.13;26.67;;;0.00;99.90;;;;;;5050239;28;20033;-83
2021/03/08 05:10:19;;;;;;;57.33;26.47;;;0.00;99.90;;;;;;5049202;28;20040;-83
2021/03/08 05:12:47;;;;;;;52.97;27.03;;;0.10;99.90;;;;;;5051058;28;20029;-81
2021/03/08 05:15:14;;;;;;;51.67;25.53;;;0.10;99.90;;;;;;5051468;28;20041;-82
2021/03/08 05:17:42;;;;;;;51.90;26.43;;;0.00;99.90;;;;;;5049318;28;20376;-82
2021/03/08 05:20:10;;;;;;;52.37;26.23;;;0.00;99.90;;;;;;5037299;28;20455;-81
2021/03/08 05:22:38;;;;;;;52.75;25.75;;;0.00;99.90;;;;;;5046387;28;20112;-82
2021/03/08 05:25:05;;;;;;;50.27;25.70;;;0.10;99.90;;;;;;5049402;28;20044;-80
2021/03/08 05:27:32;;;;;;;49.97;25.67;;;0.00;99.90;;;;;;5034648;28;20096;-82
2021/03/08 05:29:59;;;;;;;49.90;25.47;;;0.10;99.90;;;;;;5039319;28;20029;-81
2021/03/08 05:32:31;;;;;;;48.47;23.80;;;0.10;99.90;;;;;;5051097;28;20061;-80
2021/03/08 05:34:58;;;;;;;51.40;26.23;;;0.00;99.90;;;;;;5051704;28;20127;-82
2021/03/08 05:37:24;;;;;;;50.60;26.93;;;0.00;99.90;;;;;;5040301;28;20030;-80
2021/03/08 05:39:51;;;;;;;53.37;26.93;;;0.00;99.90;;;;;;5049067;28;20044;-79
2021/03/08 05:42:18;;;;;;;52.27;27.80;;;-0.10;99.90;;;;;;5043474;28;20076;-79
2021/03/08 05:45:17;;;;;;;54.37;27.47;;;-0.10;99.90;;;;;;5034253;28;20087;-81
2021/03/08 05:48:04;;;;;;;52.60;26.80;;;0.00;99.90;;;;;;5041364;28;20037;-83
2021/03/08 05:51:25;;;;;;;55.53;27.17;;;-0.10;99.90;;;;;;5048069;28;20077;-81
2021/03/08 05:54:12;;;;;;;50.57;25.50;;;-0.10;99.90;;;;;;4984416;28;20069;-80
2021/03/08 05:57:22;;;;;;;39.07;19.30;;;-0.10;99.90;;;;;;4982732;28;20066;-80
2021/03/08 06:00:09;;;;;;;47.37;24.57;;;0.00;99.90;;;;;;4977620;28;20073;-80
2021/03/08 06:02:54;;;;;;;35.70;16.33;;;0.00;99.90;;;;;;4985120;28;20035;-77
2021/03/08 06:05:37;;;;;;;44.07;21.57;;;0.00;99.90;;;;;;4970597;28;20046;-78
2021/03/08 06:08:21;;;;;;;30.73;13.17;;;0.10;99.90;;;;;;4988956;28;20038;-78
2021/03/08 06:11:02;;;;;;;24.87;10.23;;;0.10;99.90;;;;;;4980410;28;20042;-85
2021/03/08 06:13:35;;;;;;;18.23;9.23;;;0.00;99.90;;;;;;4969059;28;20447;-77
2021/03/08 06:16:02;;;;;;;28.43;14.00;;;-0.10;99.90;;;;;;4984348;28;20053;-77
2021/03/08 06:18:34;;;;;;;28.97;15.53;;;-0.10;99.90;;;;;;4989645;28;20034;-80
2021/03/08 06:21:01;;;;;;;29.23;15.37;;;-0.10;99.90;;;;;;4972779;28;20046;-81
2021/03/08 06:23:28;;;;;;;27.27;15.03;;;-0.10;99.90;;;;;;4989130;28;20033;-85
2021/03/08 06:25:55;;;;;;;32.20;16.13;;;-0.10;99.90;;;;;;4991119;28;20034;-81
2021/03/08 06:28:22;;;;;;;27.70;14.73;;;-0.10;99.90;;;;;;4995061;28;21770;-83
2021/03/08 06:30:49;;;;;;;29.37;15.57;;;-0.10;99.90;;;;;;5029891;28;20052;-82
2021/03/08 06:33:17;;;;;;;28.50;16.27;;;0.00;99.90;;;;;;5045200;28;20037;-82
2021/03/08 06:35:43;;;;;;;28.43;15.33;;;0.00;99.90;;;;;;5050508;28;20209;-83
2021/03/08 06:38:09;;;;;;;26.77;14.00;;;0.00;99.90;;;;;;5051226;28;20059;-83
2021/03/08 06:40:34;;;;;;;30.77;16.37;;;0.00;99.90;;;;;;5045922;28;20097;-83
2021/03/08 06:43:00;;;;;;;24.97;15.03;;;0.10;99.90;;;;;;5046306;28;20539;-81
2021/03/08 06:45:26;;;;;;;28.07;13.37;;;0.10;99.90;;;;;;5032544;28;20496;-82
2021/03/08 06:47:54;;;;;;;24.80;14.10;;;0.10;99.90;;;;;;5041289;28;20030;-83
2021/03/08 06:50:20;;;;;;;25.77;13.90;;;0.10;99.90;;;;;;5044703;28;20373;-82
2021/03/08 06:52:48;;;;;;;27.43;15.10;;;0.10;99.90;;;;;;5036880;28;20040;-83
2021/03/08 06:55:13;;;;;;;24.13;14.10;;;0.20;99.90;;;;;;5055504;28;20063;-75
2021/03/08 06:57:39;;;;;;;27.13;15.40;;;0.20;99.90;;;;;;5041520;28;20370;-77
2021/03/08 07:00:06;;;;;;;24.00;14.63;;;0.20;99.90;;;;;;5050351;28;20480;-77
2021/03/08 07:02:35;;;;;;;25.43;14.47;;;0.30;99.90;;;;;;5041898;28;20385;-75
2021/03/08 07:05:01;;;;;;;24.20;15.23;;;0.30;99.90;;;;;;5050419;28;20113;-75
2021/03/08 07:07:26;;;;;;;27.00;14.80;;;0.40;99.90;;;;;;5051183;28;20048;-74
2021/03/08 07:09:53;;;;;;;24.83;14.90;;;0.50;99.90;;;;;;5050585;28;20021;-75
2021/03/08 07:12:20;;;;;;;23.40;13.87;;;0.60;99.90;;;;;;5047916;28;20018;-77
2021/03/08 07:15:00;;;;;;;26.57;15.07;;;0.60;99.90;;;;;;5030133;28;20475;-75
2021/03/08 07:17:36;;;;;;;23.53;13.30;;;0.60;99.90;;;;;;5047350;28;20052;-84
2021/03/08 07:20:11;;;;;;;23.47;14.27;;;0.60;99.90;;;;;;5054743;28;20029;-86
2021/03/08 07:22:47;;;;;;;22.47;14.23;;;0.80;99.90;;;;;;5052476;28;20041;-86
2021/03/08 07:25:15;;;;;;;24.13;14.07;;;0.90;99.90;;;;;;5033952;28;20030;-86
2021/03/08 07:27:47;;;;;;;23.80;14.47;;;0.90;99.90;;;;;;5046126;28;20059;-89
2021/03/08 07:30:14;;;;;;;23.20;13.93;;;1.00;99.90;;;;;;5053633;28;20124;-86
2021/03/08 07:32:53;;;;;;;20.47;12.00;;;1.10;99.90;;;;;;5046747;28;20070;-82
2021/03/08 07:35:38;;;;;;;19.58;12.48;;;1.00;99.90;;;;;;5048318;28;20060;-82
2021/03/08 07:38:06;;;;;;;18.93;11.50;;;1.20;99.90;;;;;;5062047;28;20075;-91
2021/03/08 07:40:33;;;;;;;21.87;12.67;;;1.10;99.90;;;;;;5066074;28;20021;-92
2021/03/08 07:43:00;;;;;;;24.83;11.97;;;1.20;99.90;;;;;;5046102;28;20099;-91
2021/03/08 07:45:45;;;;;;;17.90;10.10;;;1.30;99.90;;;;;;5065537;28;20079;-90
2021/03/08 07:48:19;;;;;;;19.00;11.97;;;1.30;99.90;;;;;;5060795;28;20419;-79
2021/03/08 07:50:46;;;;;;;20.00;11.00;;;1.20;99.90;;;;;;5054097;28;20437;-79
2021/03/08 07:53:23;;;;;;;19.70;9.93;;;1.30;99.90;;;;;;5053798;28;20024;-80
2021/03/08 07:55:49;;;;;;;18.23;9.73;;;1.30;99.90;;;;;;5043621;28;20122;-79
2021/03/08 07:58:17;;;;;;;17.33;9.87;;;1.20;99.90;;;;;;5053937;28;20076;-81
2021/03/08 08:00:42;;;;;;;21.63;12.47;;;1.20;99.90;;;;;;5054135;28;20480;-79
2021/03/08 08:03:08;;;;;;;17.47;10.03;;;1.40;99.90;;;;;;5053423;28;20044;-80
2021/03/08 08:05:33;;;;;;;20.80;12.27;;;1.30;99.90;;;;;;5053781;28;20505;-78
2021/03/08 08:08:00;;;;;;;20.73;12.43;;;1.40;99.90;;;;;;5035029;28;20040;-78
2021/03/08 08:10:25;;;;;;;21.00;11.97;;;1.60;99.90;;;;;;5035211;28;20029;-76
2021/03/08 08:12:54;;;;;;;22.23;11.27;;;1.80;99.90;;;;;;5034445;28;20025;-78
2021/03/08 08:15:22;;;;;;;16.97;10.67;;;2.00;99.90;;;;;;5033103;28;20063;-78
2021/03/08 08:17:51;;;;;;;17.13;10.97;;;1.90;99.90;;;;;;5034663;28;20283;-77
2021/03/08 08:20:17;;;;;;;17.13;10.03;;;1.90;99.90;;;;;;5050293;28;20457;-79
2021/03/08 08:22:59;;;;;;;21.17;11.53;;;1.80;99.90;;;;;;5053507;28;20025;-77
2021/03/08 08:25:27;;;;;;;18.10;9.93;;;1.80;99.90;;;;;;5053395;28;20182;-78
2021/03/08 08:27:53;;;;;;;16.70;10.07;;;1.70;99.90;;;;;;5051249;28;20033;-78
2021/03/08 08:30:23;;;;;;;17.03;10.10;;;1.90;99.90;;;;;;5037966;28;20057;-78
2021/03/08 08:32:49;;;;;;;;;;;1.90;99.90;;;;;;5035815;28;20028;-79
2021/03/08 08:35:20;;;;;;;16.33;9.60;;;2.00;99.90;;;;;;5033687;28;19917;-78
2021/03/08 08:38:11;;;;;;;20.20;10.80;;;1.80;99.90;;;;;;5035291;28;20014;-78
2021/03/08 08:40:41;;;;;;;12.20;7.57;;;2.10;99.90;;;;;;5045513;28;20052;-78
2021/03/08 08:43:15;;;;;;;15.10;8.70;;;2.10;99.90;;;;;;5053413;28;20043;-78
2021/03/08 08:45:42;;;;;;;17.63;9.10;;;2.10;99.90;;;;;;5054532;28;20021;-78
2021/03/08 08:48:08;;;;;;;17.27;9.00;;;2.00;99.90;;;;;;5053969;28;20059;-78
2021/03/08 08:50:51;;;;;;;15.17;8.50;;;2.10;99.90;;;;;;5052756;28;20476;-79
2021/03/08 08:53:35;;;;;;;17.77;9.53;;;2.10;99.90;;;;;;5035601;28;20079;-79
2021/03/08 08:56:02;;;;;;;13.40;8.47;;;2.10;99.90;;;;;;5052592;28;20377;-79
2021/03/08 08:58:31;;;;;;;12.93;8.27;;;2.30;99.90;;;;;;5055421;28;20020;-78
2021/03/08 09:01:36;;;;;;;16.58;9.68;;;2.20;99.90;;;;;;5053293;28;20415;-79
2021/03/08 09:04:09;;;;;;;14.93;8.93;;;2.20;99.90;;;;;;5032316;28;20606;-78
2021/03/08 09:06:50;;;;;;;15.97;9.57;;;2.30;99.90;;;;;;5032392;28;20103;-78
2021/03/08 09:09:39;;;;;;;16.80;9.50;;;2.50;99.90;;;;;;5033114;28;20124;-78
2021/03/08 09:12:06;;;;;;;13.60;9.00;;;2.70;99.90;;;;;;5030269;28;20026;-78
2021/03/08 09:14:41;;;;;;;16.37;9.77;;;2.80;99.90;;;;;;5036640;28;20033;-79
2021/03/08 09:17:19;;;;;;;13.52;9.30;;;2.90;99.90;;;;;;5018643;28;20044;-78
2021/03/08 09:20:06;;;;;;;18.95;10.43;;;2.90;99.90;;;;;;5033491;28;20026;-78
2021/03/08 09:22:34;;;;;;;15.88;10.13;;;3.10;99.90;;;;;;5009899;28;20062;-79
2021/03/08 09:25:12;;;;;;;22.02;10.05;;;3.20;99.90;;;;;;4993784;28;20507;-78
2021/03/08 09:27:41;;;;;;;16.67;10.15;;;3.30;99.90;;;;;;4992812;28;20042;-80
2021/03/08 09:30:10;;;;;;;14.93;10.07;;;3.20;99.90;;;;;;4990969;28;20176;-79
2021/03/08 09:32:45;;;;;;;18.30;10.60;;;3.20;99.90;;;;;;4990701;28;20027;-77
2021/03/08 09:35:11;;;;;;;14.82;9.95;;;3.30;99.90;;;;;;5009487;28;20512;-78
2021/03/08 09:37:37;;;;;;;17.98;11.15;;;3.20;99.90;;;;;;5010689;28;20030;-77
2021/03/08 09:40:04;;;;;;;16.45;9.63;;;3.20;99.90;;;;;;5014967;28;20065;-78
2021/03/08 09:42:39;;;;;;;18.02;9.95;;;3.20;99.90;;;;;;5029883;28;20033;-79
2021/03/08 09:45:18;;;;;;;16.02;10.73;;;3.20;99.90;;;;;;5028381;28;20120;-78
2021/03/08 09:47:45;;;;;;;18.67;10.40;;;3.20;99.90;;;;;;5013492;28;20112;-79
2021/03/08 09:50:16;;;;;;;20.85;10.75;;;3.30;99.90;;;;;;5029990;28;20037;-77
2021/03/08 09:52:43;;;;;;;22.02;10.90;;;3.50;99.90;;;;;;5029482;28;20445;-77
2021/03/08 09:55:14;;;;;;;17.80;10.73;;;3.50;99.90;;;;;;5020143;28;20042;-78
2021/03/08 09:57:44;;;;;;;19.48;11.40;;;3.70;99.90;;;;;;5010103;28;20389;-77
2021/03/08 10:00:18;;;;;;;17.63;11.23;;;3.70;99.90;;;;;;5035982;28;20103;-78
2021/03/08 10:02:44;;;;;;;18.42;10.70;;;3.90;99.90;;;;;;5029967;28;20034;-79
2021/03/08 10:05:12;;;;;;;18.33;10.75;;;3.90;99.90;;;;;;5032998;28;20052;-78
2021/03/08 10:07:54;;;;;;;18.67;11.02;;;4.00;99.90;;;;;;5031442;28;20048;-78
2021/03/08 10:10:22;;;;;;;17.55;10.75;;;3.90;99.90;;;;;;5032033;28;20021;-79
2021/03/08 10:13:01;;;;;;;17.83;11.48;;;4.00;99.90;;;;;;5031615;28;20022;-78
2021/03/08 10:15:42;;;;;;;16.10;10.52;;;4.30;99.90;;;;;;5032636;28;20039;-78
2021/03/08 10:18:08;;;;;;;19.60;10.50;;;4.40;99.90;;;;;;5052729;28;20056;-79
2021/03/08 10:20:47;;;;;;;21.50;11.65;;;4.40;99.90;;;;;;5052023;28;20112;-78
2021/03/08 10:23:14;;;;;;;15.27;10.63;;;4.50;99.90;;;;;;5051519;28;20025;-78
2021/03/08 10:25:40;;;;;;;15.57;9.63;;;4.60;99.90;;;;;;5050974;28;20115;-79
2021/03/08 10:28:06;;;;;;;17.08;10.10;;;4.40;99.90;;;;;;5035964;28;20160;-79
2021/03/08 10:30:33;;;;;;;13.80;8.75;;;4.40;99.90;;;;;;5031365;28;20405;-78
2021/03/08 10:33:02;;;;;;;15.65;8.00;;;4.60;99.90;;;;;;5030044;28;20509;-79
2021/03/08 10:35:34;;;;;;;14.68;9.15;;;4.40;99.90;;;;;;5031234;28;20041;-79
2021/03/08 10:38:01;;;;;;;14.63;9.18;;;4.50;99.90;;;;;;5033190;28;20026;-79
2021/03/08 10:40:28;;;;;;;13.07;8.70;;;4.20;99.90;;;;;;5031636;28;20037;-78
2021/03/08 10:42:54;;;;;;;17.73;9.20;;;4.40;99.90;;;;;;5031490;28;20029;-80
2021/03/08 10:45:20;;;;;;;15.20;9.45;;;4.50;99.90;;;;;;5042798;28;20033;-78
2021/03/08 10:48:05;;;;;;;14.85;9.52;;;4.50;99.90;;;;;;5050637;28;20487;-79
2021/03/08 10:50:47;;;;;;;16.08;9.38;;;4.80;99.90;;;;;;5050796;28;20075;-79
2021/03/08 10:53:13;;;;;;;14.38;9.50;;;4.70;99.90;;;;;;5051187;28;20107;-78
2021/03/08 10:55:40;;;;;;;15.13;10.07;;;5.00;99.90;;;;;;5051151;28;20341;-79
2021/03/08 10:58:06;;;;;;;16.48;9.65;;;5.10;99.90;;;;;;5051475;28;20371;-79
2021/03/08 11:00:32;;;;;;;17.42;8.15;;;5.40;99.90;;;;;;5048954;28;20025;-79
2021/03/08 11:03:01;;;;;;;13.63;8.98;;;4.50;99.90;;;;;;5051372;28;20021;-81
2021/03/08 11:05:28;;;;;;;15.77;10.50;;;4.30;99.90;;;;;;5051088;28;20033;-79
2021/03/08 11:07:56;;;;;;;18.70;11.90;;;4.70;99.90;;;;;;5051022;28;20380;-79
2021/03/08 11:10:35;;;;;;;17.35;11.30;;;5.00;99.90;;;;;;5039159;28;20081;-78
2021/03/08 11:13:03;;;;;;;17.13;10.43;;;5.30;99.90;;;;;;5031232;28;20018;-77
2021/03/08 11:15:28;;;;;;;19.05;11.40;;;5.10;99.90;;;;;;5030685;28;20379;-78
2021/03/08 11:17:54;;;;;;;21.33;10.90;;;5.10;99.90;;;;;;5031039;28;20080;-79
2021/03/08 11:20:23;;;;;;;20.63;11.65;;;5.00;99.90;;;;;;5035221;28;20025;-79
2021/03/08 11:22:51;;;;;;;18.05;11.35;;;4.80;99.90;;;;;;5039371;28;20029;-79
2021/03/08 11:25:41;;;;;;;18.75;9.93;;;4.80;99.90;;;;;;5037314;28;20262;-78
2021/03/08 11:28:15;;;;;;;17.10;10.35;;;4.60;99.90;;;;;;4974154;28;20118;-79
2021/03/08 11:30:45;;;;;;;14.05;8.60;;;4.70;99.90;;;;;;4976084;28;20086;-78
2021/03/08 11:33:11;;;;;;;16.73;9.63;;;4.60;99.90;;;;;;4992635;28;20045;-79
2021/03/08 11:35:38;;;;;;;17.17;10.23;;;4.40;99.90;;;;;;4992431;28;20269;-78
2021/03/08 11:38:06;;;;;;;18.35;10.77;;;4.60;99.90;;;;;;4992744;28;20109;-79
2021/03/08 11:40:33;;;;;;;16.42;10.23;;;4.90;99.90;;;;;;4992545;28;20030;-79
2021/03/08 11:43:00;;;;;;;18.27;10.32;;;5.20;99.90;;;;;;4991464;28;20026;-79
2021/03/08 11:45:28;;;;;;;15.43;9.70;;;5.50;99.90;;;;;;4992159;28;20034;-80
2021/03/08 11:47:55;;;;;;;15.00;10.05;;;5.40;99.90;;;;;;4992379;28;20398;-78
2021/03/08 11:50:24;;;;;;;16.40;10.30;;;5.30;99.90;;;;;;4991389;28;20030;-80
2021/03/08 11:52:50;;;;;;;14.60;9.13;;;5.50;99.90;;;;;;4972528;28;20047;-78
2021/03/08 11:55:17;;;;;;;14.98;10.10;;;5.40;99.90;;;;;;4983985;28;20083;-78
2021/03/08 11:57:47;;;;;;;17.45;9.40;;;5.50;99.90;;;;;;4992434;28;20514;-78
2021/03/08 12:00:16;;;;;;;17.92;9.80;;;5.60;99.90;;;;;;4992233;28;20470;-77
2021/03/08 12:02:42;;;;;;;15.13;9.38;;;5.60;99.90;;;;;;4991968;28;20513;-78
2021/03/08 12:05:09;;;;;;;13.75;9.48;;;5.30;99.90;;;;;;5024222;28;20049;-77
2021/03/08 12:07:35;;;;;;;16.35;9.30;;;5.30;99.90;;;;;;5054867;28;20043;-79
2021/03/08 12:10:02;;;;;;;16.35;8.98;;;5.20;99.90;;;;;;5054550;28;20476;-79
2021/03/08 12:12:28;;;;;;;18.70;10.13;;;5.10;99.90;;;;;;5048626;28;20033;-78
2021/03/08 12:14:54;;;;;;;16.45;10.20;;;5.20;99.90;;;;;;5035262;28;20532;-78
2021/03/08 12:17:19;;;;;;;16.58;9.98;;;5.70;99.90;;;;;;5033889;28;20075;-78
2021/03/08 12:19:45;;;;;;;14.98;10.27;;;5.90;99.90;;;;;;5034089;28;20051;-78
2021/03/08 12:22:10;;;;;;;14.65;9.63;;;6.20;99.90;;;;;;5035206;28;20477;-79
2021/03/08 12:24:36;;;;;;;17.90;10.52;;;6.40;99.90;;;;;;5053585;28;20025;-80
2021/03/08 12:27:02;;;;;;;15.23;9.63;;;6.40;99.90;;;;;;5057438;28;20033;-77
2021/03/08 12:29:27;;;;;;;15.63;10.38;;;6.60;99.90;;;;;;5056042;28;20036;-78
2021/03/08 12:31:53;;;;;;;15.18;9.85;;;6.90;99.90;;;;;;5054482;28;20087;-78
2021/03/08 12:34:18;;;;;;;14.77;9.55;;;6.90;99.90;;;;;;5044372;28;20053;-78
2021/03/08 12:36:44;;;;;;;14.80;9.60;;;6.90;99.90;;;;;;5033077;28;20112;-78
2021/03/08 12:39:10;;;;;;;16.30;9.70;;;6.70;99.90;;;;;;5034828;28;20025;-79
2021/03/08 12:41:35;;;;;;;15.05;9.48;;;6.20;99.90;;;;;;5034939;28;20473;-79
2021/03/08 12:44:01;;;;;;;18.05;9.95;;;5.80;99.90;;;;;;5037771;28;20017;-78
2021/03/08 12:46:26;;;;;;;16.35;10.60;;;5.80;99.90;;;;;;5052456;28;20070;-77
2021/03/08 12:48:53;;;;;;;14.90;10.38;;;6.10;99.90;;;;;;5054865;28;20027;-80
2021/03/08 12:51:21;;;;;;;16.92;10.40;;;6.60;99.90;;;;;;5053275;28;20124;-80